Dades meteomassalio
Diari Summary for Setembre 1, 2017 Units:  Metric    English   Both
« Previous Day
Next Day »
Diari Semanal Mensual Anual Personalitzat
  Maxima: Minima: Mijana:
Temperatura: 25.0 °C 12.8 °C 18.9 °C
Rosada: 12.3 °C 7.3 °C 9.6 °C
Humitat: 76 % 39 % 56 %
Velocitat del vent: 43.4 km/h 0.0 km/h 19 km/h
Racha vent: 43.4 km/h - -
Vent:- - SW
Pressio: 1023.2 hPa 1019.9 hPa -
Pluja: 0.0 mm    
Historical Graphs
 
 
Tabular Data for Setembre 1, 2017
Time Temperature Dew Point Pressure Wind Wind Speed Wind Gust Humidity Rainfall Rate (Hourly) solar Conditions
00:04 15.6 °C 9.7 °C 1021.9 hPa Calm     68 % 0.0 mm 0.0 W/m2 RA
00:09 15.6 °C 9.9 °C 1021.9 hPa Calm     69 % 0.0 mm 0.0 W/m2 CLR
00:14 15.6 °C 9.7 °C 1021.9 hPa SSW 1.6 km/h   68 % 0.0 mm 0.0 W/m2 CLR
00:19 15.6 °C 9.4 °C 1021.9 hPa Calm     67 % 0.0 mm 0.0 W/m2 CLR
00:24 15.6 °C 9.2 °C 1021.9 hPa Calm     66 % 0.0 mm 0.0 W/m2 CLR
00:29 15.6 °C 9.4 °C 1021.9 hPa Calm     67 % 0.0 mm 0.0 W/m2 CLR
00:34 15.6 °C 9.9 °C 1021.9 hPa Calm     69 % 0.0 mm 0.0 W/m2 CLR
00:39 15.6 °C 9.9 °C 1021.9 hPa SSE 3.7 km/h 3.7 km/h 69 % 0.0 mm 0.0 W/m2 CLR
00:44 15.6 °C 9.9 °C 1022.2 hPa SSE 5.6 km/h 5.6 km/h 69 % 0.0 mm 0.0 W/m2 CLR
00:49 15.6 °C 9.9 °C 1022.2 hPa Calm     69 % 0.0 mm 0.0 W/m2 CLR
00:54 16.1 °C 10.6 °C 1021.9 hPa Calm     70 % 0.0 mm 0.0 W/m2 CLR
00:59 16.1 °C 10.6 °C 1021.9 hPa Calm     70 % 0.0 mm 0.0 W/m2 CLR
01:04 16.1 °C 10.6 °C 1022.2 hPa Calm     70 % 0.0 mm 0.0 W/m2 CLR
01:09 16.1 °C 10.2 °C 1021.9 hPa Calm     68 % 0.0 mm 0.0 W/m2 CLR
01:14 16.1 °C 10.0 °C 1021.9 hPa Calm     67 % 0.0 mm 0.0 W/m2 CLR
01:19 15.6 °C 9.4 °C 1021.9 hPa SSW 3.2 km/h   67 % 0.0 mm 0.0 W/m2 CLR
01:24 15.6 °C 9.7 °C 1021.9 hPa Calm     68 % 0.0 mm 0.0 W/m2 CLR
01:29 15.0 °C 8.9 °C 1021.9 hPa SSW 5.6 km/h 5.6 km/h 67 % 0.0 mm 0.0 W/m2 CLR
01:34 15.0 °C 8.9 °C 1021.9 hPa Calm     67 % 0.0 mm 0.0 W/m2 CLR
01:39 15.0 °C 8.9 °C 1021.9 hPa Calm     67 % 0.0 mm 0.0 W/m2 CLR
01:44 15.0 °C 9.1 °C 1021.9 hPa Calm     68 % 0.0 mm 0.0 W/m2 CLR
01:49 15.0 °C 9.3 °C 1021.9 hPa Calm     69 % 0.0 mm 0.0 W/m2 CLR
01:54 14.4 °C 9.1 °C 1021.9 hPa Calm     70 % 0.0 mm 0.0 W/m2 CLR
01:59 14.4 °C 9.1 °C 1021.9 hPa Calm     70 % 0.0 mm 0.0 W/m2 CLR
02:04 14.4 °C 9.1 °C 1021.9 hPa Calm     70 % 0.0 mm 0.0 W/m2 CLR
02:09 14.4 °C 9.2 °C 1021.9 hPa Calm     71 % 0.0 mm 0.0 W/m2 CLR
02:14 14.4 °C 9.1 °C 1021.9 hPa Calm     70 % 0.0 mm 0.0 W/m2 CLR
02:19 14.4 °C 9.1 °C 1022.2 hPa Calm     70 % 0.0 mm 0.0 W/m2 CLR
02:24 14.4 °C 9.1 °C 1021.9 hPa Calm     70 % 0.0 mm 0.0 W/m2 CLR
02:29 14.4 °C 9.1 °C 1021.9 hPa Calm     70 % 0.0 mm 0.0 W/m2 CLR
02:34 13.9 °C 8.3 °C 1021.9 hPa Calm     69 % 0.0 mm 0.0 W/m2 CLR
02:39 13.9 °C 8.3 °C 1021.9 hPa Calm     69 % 0.0 mm 0.0 W/m2 CLR
02:40 13.9 °C 8.3 °C 1021.9 hPa Calm     69 % 0.0 mm 0.0 W/m2 CLR
02:45 13.9 °C 8.3 °C 1021.9 hPa SSW 7.4 km/h 7.4 km/h 69 % 0.0 mm 0.0 W/m2 CLR
02:50 13.9 °C 8.3 °C 1021.9 hPa SSW 5.6 km/h 5.6 km/h 69 % 0.0 mm 0.0 W/m2 CLR
02:55 13.3 °C 7.8 °C 1021.9 hPa South 7.4 km/h 7.4 km/h 69 % 0.0 mm 0.0 W/m2 CLR
03:00 13.3 °C 7.8 °C 1021.9 hPa Calm     69 % 0.0 mm 0.0 W/m2 CLR
03:05 13.3 °C 8.0 °C 1021.9 hPa SSW 9.3 km/h 9.3 km/h 70 % 0.0 mm 0.0 W/m2 CLR
03:10 13.3 °C 8.0 °C 1021.9 hPa South 6.4 km/h 6.4 km/h 70 % 0.0 mm 0.0 W/m2 CLR
03:15 13.3 °C 8.0 °C 1021.9 hPa Calm     70 % 0.0 mm 0.0 W/m2 CLR
03:20 13.3 °C 8.2 °C 1021.9 hPa Calm     71 % 0.0 mm 0.0 W/m2 CLR
03:25 12.8 °C 7.7 °C 1021.9 hPa Calm     71 % 0.0 mm 0.0 W/m2 CLR
03:30 12.8 °C 7.8 °C 1021.9 hPa Calm     72 % 0.0 mm 0.0 W/m2 CLR
03:35 12.8 °C 7.8 °C 1022.2 hPa South 5.6 km/h 5.6 km/h 72 % 0.0 mm 0.0 W/m2 CLR
03:40 12.8 °C 7.8 °C 1022.2 hPa South 9.3 km/h 9.3 km/h 72 % 0.0 mm 0.0 W/m2 CLR
03:45 12.8 °C 7.8 °C 1022.2 hPa South 1.9 km/h 1.9 km/h 72 % 0.0 mm 0.0 W/m2 CLR
03:50 12.8 °C 8.1 °C 1022.2 hPa South 7.4 km/h 7.4 km/h 73 % 0.0 mm 0.0 W/m2 CLR
03:55 12.8 °C 8.1 °C 1022.2 hPa SSE 7.4 km/h 7.4 km/h 73 % 0.0 mm 0.0 W/m2 CLR
04:00 12.8 °C 8.3 °C 1022.2 hPa South 5.6 km/h 5.6 km/h 74 % 0.0 mm 0.0 W/m2 CLR
04:05 12.8 °C 8.4 °C 1022.2 hPa Calm     75 % 0.0 mm 0.0 W/m2 CLR
04:10 12.8 °C 8.4 °C 1022.2 hPa Calm     75 % 0.0 mm 0.0 W/m2 CLR
04:15 12.8 °C 8.7 °C 1022.2 hPa SSW 11.1 km/h 11.1 km/h 76 % 0.0 mm 0.0 W/m2 CLR
04:20 12.8 °C 8.7 °C 1022.2 hPa South 9.3 km/h 9.3 km/h 76 % 0.0 mm 0.0 W/m2 CLR
04:25 12.8 °C 8.3 °C 1022.2 hPa SSW 11.1 km/h 11.1 km/h 74 % 0.0 mm 0.0 W/m2 CLR
04:30 12.8 °C 7.8 °C 1022.2 hPa SSW 5.6 km/h 5.6 km/h 72 % 0.0 mm 0.0 W/m2 CLR
04:35 12.8 °C 7.8 °C 1022.2 hPa SSW 9.3 km/h 9.3 km/h 72 % 0.0 mm 0.0 W/m2 CLR
04:40 13.3 °C 8.2 °C 1022.2 hPa South 1.9 km/h 1.9 km/h 71 % 0.0 mm 0.0 W/m2 CLR
04:45 13.3 °C 8.2 °C 1022.2 hPa Calm     71 % 0.0 mm 0.0 W/m2 CLR
04:50 13.3 °C 8.4 °C 1022.2 hPa Calm     72 % 0.0 mm 0.0 W/m2 CLR
04:55 13.3 °C 8.6 °C 1022.2 hPa Calm     73 % 0.0 mm 0.0 W/m2 CLR
05:00 13.3 °C 8.8 °C 1022.2 hPa Calm     74 % 0.0 mm 0.0 W/m2 CLR
05:05 13.3 °C 8.8 °C 1022.2 hPa Calm     74 % 0.0 mm 0.0 W/m2 CLR
05:10 13.9 °C 9.6 °C 1022.2 hPa Calm     75 % 0.0 mm 0.0 W/m2 CLR
05:15 13.9 °C 9.3 °C 1022.2 hPa Calm     74 % 0.0 mm 0.0 W/m2 CLR
05:20 13.9 °C 8.9 °C 1022.2 hPa SSW 3.2 km/h 3.2 km/h 72 % 0.0 mm 0.0 W/m2 CLR
05:22 13.9 °C 8.7 °C 1022.2 hPa SW 8.0 km/h 8.0 km/h 71 % 0.0 mm 0.0 W/m2 CLR
05:24 13.9 °C 8.7 °C 1022.2 hPa SSW 7.4 km/h 7.4 km/h 71 % 0.0 mm 0.0 W/m2 CLR
05:28 13.9 °C 8.5 °C 1022.2 hPa SSW 3.7 km/h   70 % 0.0 mm 0.0 W/m2 CLR
05:29 13.9 °C 8.5 °C 1022.2 hPa Calm     70 % 0.0 mm 0.0 W/m2 CLR
05:34 13.9 °C 8.3 °C 1022.2 hPa SSW 6.4 km/h 6.4 km/h 69 % 0.0 mm 0.0 W/m2 CLR
05:39 13.9 °C 8.1 °C 1022.2 hPa SSW 11.3 km/h 11.3 km/h 68 % 0.0 mm 0.0 W/m2 CLR
05:44 14.4 °C 8.4 °C 1022.2 hPa SSW 11.3 km/h 11.3 km/h 67 % 0.0 mm 0.0 W/m2 CLR
05:49 15.0 °C 8.9 °C 1022.2 hPa South 14.8 km/h 14.8 km/h 67 % 0.0 mm 0.0 W/m2 CLR
05:54 15.6 °C 9.2 °C 1021.9 hPa SSW 13.0 km/h 13.0 km/h 66 % 0.0 mm 0.0 W/m2 CLR
05:59 16.1 °C 10.0 °C 1021.9 hPa SSW 20.4 km/h 20.4 km/h 67 % 0.0 mm 0.0 W/m2 CLR
06:04 16.1 °C 9.8 °C 1021.9 hPa SW 13.0 km/h 13.0 km/h 66 % 0.0 mm 0.0 W/m2 CLR
06:09 16.1 °C 9.8 °C 1022.2 hPa SSW 13.0 km/h 13.0 km/h 66 % 0.0 mm 0.0 W/m2 CLR
06:19 16.1 °C 9.8 °C 1022.2 hPa WSW 22.2 km/h 22.2 km/h 66 % 0.0 mm 0.0 W/m2 CLR
06:24 16.1 °C 9.5 °C 1022.2 hPa SW 31.5 km/h 31.5 km/h 65 % 0.0 mm 0.0 W/m2 CLR
06:29 16.7 °C 10.3 °C 1022.2 hPa SW 11.1 km/h 11.1 km/h 66 % 0.0 mm 0.0 W/m2 CLR
06:34 16.7 °C 10.3 °C 1022.2 hPa WSW 22.5 km/h 22.5 km/h 66 % 0.0 mm 0.0 W/m2 CLR
06:39 16.1 °C 10.0 °C 1022.2 hPa SSW 18.5 km/h 18.5 km/h 67 % 0.0 mm 0.0 W/m2 CLR
06:44 16.1 °C 10.0 °C 1022.2 hPa SSW 14.8 km/h 14.8 km/h 67 % 0.0 mm 0.0 W/m2 CLR
06:49 16.1 °C 10.0 °C 1022.2 hPa SW 24.1 km/h 24.1 km/h 67 % 0.0 mm 0.0 W/m2 CLR
06:54 16.1 °C 10.0 °C 1022.2 hPa SW 24.1 km/h 24.1 km/h 67 % 0.0 mm 0.0 W/m2 CLR
06:59 16.1 °C 10.2 °C 1022.2 hPa SW 14.8 km/h 14.8 km/h 68 % 0.0 mm 0.0 W/m2 CLR
07:04 16.1 °C 10.2 °C 1022.2 hPa SW 22.5 km/h 22.5 km/h 68 % 0.0 mm 0.0 W/m2 CLR
07:09 16.1 °C 10.2 °C 1022.2 hPa SW 18.5 km/h 18.5 km/h 68 % 0.0 mm 0.0 W/m2 CLR
07:14 16.1 °C 10.0 °C 1022.2 hPa SSW 18.5 km/h 18.5 km/h 67 % 0.0 mm 0.0 W/m2 CLR
07:19 16.1 °C 10.0 °C 1022.2 hPa SSW 16.7 km/h 16.7 km/h 67 % 0.0 mm 0.0 W/m2 OVC
07:24 16.1 °C 9.8 °C 1022.2 hPa SW 18.5 km/h 18.5 km/h 66 % 0.0 mm 0.0 W/m2 OVC
07:29 16.1 °C 9.8 °C 1022.2 hPa SSW 18.5 km/h 18.5 km/h 66 % 0.0 mm 0.0 W/m2 OVC
07:34 16.1 °C 9.8 °C 1022.2 hPa SSW 13.0 km/h 13.0 km/h 66 % 0.0 mm 5.0 W/m2 OVC
07:39 16.1 °C 9.8 °C 1022.2 hPa SSW 22.2 km/h 22.2 km/h 66 % 0.0 mm 5.0 W/m2 OVC
07:44 16.1 °C 9.8 °C 1022.2 hPa SSW 7.4 km/h 7.4 km/h 66 % 0.0 mm 5.0 W/m2 OVC
07:49 16.1 °C 9.8 °C 1022.2 hPa South 9.7 km/h 9.7 km/h 66 % 0.0 mm 7.0 W/m2 BKN
07:54 16.1 °C 9.8 °C 1022.2 hPa SSW 18.5 km/h 18.5 km/h 66 % 0.0 mm 14.0 W/m2 BKN
07:59 16.1 °C 9.8 °C 1022.2 hPa SSW 16.7 km/h 16.7 km/h 66 % 0.0 mm 16.0 W/m2 BKN
08:04 16.7 °C 10.1 °C 1022.2 hPa SSW 18.5 km/h 18.5 km/h 65 % 0.0 mm 19.0 W/m2 BKN
08:09 16.7 °C 10.1 °C 1022.2 hPa SSW 13.0 km/h 13.0 km/h 65 % 0.0 mm 28.0 W/m2 BKN
08:14 16.7 °C 10.1 °C 1022.6 hPa SSW 18.5 km/h 18.5 km/h 65 % 0.0 mm 35.0 W/m2 BKN
08:19 16.7 °C 10.1 °C 1022.6 hPa SSW 22.2 km/h 22.2 km/h 65 % 0.0 mm 42.0 W/m2 BKN
08:24 16.7 °C 10.3 °C 1022.6 hPa SW 25.7 km/h 25.7 km/h 66 % 0.0 mm 49.0 W/m2 SCT
08:29 16.7 °C 10.1 °C 1022.6 hPa SW 25.9 km/h 25.9 km/h 65 % 0.0 mm 60.0 W/m2 SCT
08:34 16.7 °C 10.1 °C 1022.6 hPa SW 18.5 km/h 18.5 km/h 65 % 0.0 mm 58.0 W/m2 SCT
08:39 16.7 °C 10.3 °C 1022.6 hPa SSW 20.4 km/h 20.4 km/h 66 % 0.0 mm 67.0 W/m2 SCT
08:40 16.7 °C 10.3 °C 1022.6 hPa SSW 20.4 km/h 20.4 km/h 66 % 0.0 mm 77.0 W/m2 SCT
08:45 16.7 °C 10.3 °C 1022.6 hPa SW 20.9 km/h 20.9 km/h 66 % 0.0 mm 104.0 W/m2 FEW
08:50 16.7 °C 10.3 °C 1022.6 hPa SSW 18.5 km/h 18.5 km/h 66 % 0.0 mm 183.0 W/m2 CLR
08:55 17.2 °C 10.6 °C 1022.6 hPa SW 20.4 km/h 20.4 km/h 65 % 0.0 mm 120.0 W/m2 CLR
09:00 17.2 °C 10.6 °C 1022.6 hPa SSW 22.2 km/h 22.2 km/h 65 % 0.0 mm 253.0 W/m2 CLR
09:05 17.8 °C 11.1 °C 1022.6 hPa SSW 25.9 km/h 25.9 km/h 65 % 0.0 mm 227.0 W/m2 CLR
09:10 17.8 °C 11.1 °C 1022.6 hPa SW 31.5 km/h 31.5 km/h 65 % 0.0 mm 248.0 W/m2 CLR
09:15 17.8 °C 10.9 °C 1022.6 hPa SSW 24.1 km/h 24.1 km/h 64 % 0.0 mm 267.0 W/m2 CLR
09:20 17.8 °C 11.1 °C 1022.6 hPa SSW 18.5 km/h 18.5 km/h 65 % 0.0 mm 193.0 W/m2 CLR
09:25 17.8 °C 10.6 °C 1022.6 hPa SW 27.8 km/h 27.8 km/h 63 % 0.0 mm 95.0 W/m2 CLR
09:30 17.2 °C 10.6 °C 1022.6 hPa SW 29.0 km/h 29.0 km/h 65 % 0.0 mm 135.0 W/m2 CLR
09:35 17.2 °C 10.3 °C 1022.9 hPa SSW 18.5 km/h 18.5 km/h 64 % 0.0 mm 357.0 W/m2 CLR
09:40 17.8 °C 10.6 °C 1022.6 hPa SW 24.1 km/h 24.1 km/h 63 % 0.0 mm 404.0 W/m2 CLR
09:45 18.3 °C 11.2 °C 1022.9 hPa WSW 22.2 km/h 22.2 km/h 63 % 0.0 mm 424.0 W/m2 CLR
09:50 18.3 °C 11.2 °C 1022.9 hPa SW 27.4 km/h 27.4 km/h 63 % 0.0 mm 399.0 W/m2 CLR
09:55 17.8 °C 10.6 °C 1022.9 hPa WSW 22.5 km/h 22.5 km/h 63 % 0.0 mm 181.0 W/m2 CLR
10:00 18.3 °C 11.2 °C 1022.9 hPa WSW 24.1 km/h 24.1 km/h 63 % 0.0 mm 443.0 W/m2 CLR
10:05 18.3 °C 11.2 °C 1022.9 hPa SW 18.5 km/h 18.5 km/h 63 % 0.0 mm 482.0 W/m2 CLR
10:10 18.9 °C 11.2 °C 1022.9 hPa WSW 27.8 km/h 27.8 km/h 61 % 0.0 mm 608.0 W/m2 CLR
10:15 18.9 °C 11.2 °C 1022.9 hPa WSW 20.4 km/h 20.4 km/h 61 % 0.0 mm 473.0 W/m2 CLR
10:20 18.9 °C 11.2 °C 1022.9 hPa SW 24.1 km/h 24.1 km/h 61 % 0.0 mm 257.0 W/m2 CLR
10:25 18.3 °C 10.9 °C 1022.9 hPa SSW 20.4 km/h 20.4 km/h 62 % 0.0 mm 211.0 W/m2 CLR
10:30 18.3 °C 11.2 °C 1022.9 hPa WSW 7.4 km/h 7.4 km/h 63 % 0.0 mm 211.0 W/m2 CLR
10:35 18.3 °C 11.2 °C 1023.2 hPa SW 22.2 km/h 22.2 km/h 63 % 0.0 mm 185.0 W/m2 CLR
10:40 18.3 °C 11.2 °C 1023.2 hPa SW 16.7 km/h 16.7 km/h 63 % 0.0 mm 199.0 W/m2 CLR
10:45 18.3 °C 11.2 °C 1023.2 hPa SW 20.4 km/h 20.4 km/h 63 % 0.0 mm 163.0 W/m2 CLR
10:50 18.3 °C 11.4 °C 1023.2 hPa SW 18.5 km/h 18.5 km/h 64 % 0.0 mm 195.0 W/m2 CLR
10:55 18.3 °C 10.9 °C 1023.2 hPa SSW 20.4 km/h 20.4 km/h 62 % 0.0 mm 257.0 W/m2 CLR
11:00 18.3 °C 11.4 °C 1023.2 hPa WSW 13.0 km/h 13.0 km/h 64 % 0.0 mm 733.0 W/m2 CLR
11:06 18.9 °C 11.2 °C 1023.2 hPa SW 27.8 km/h 27.8 km/h 61 % 0.0 mm 346.0 W/m2 CLR
11:11 19.4 °C 11.5 °C 1023.2 hPa WSW 18.5 km/h 18.5 km/h 60 % 0.0 mm 726.0 W/m2 CLR
11:16 19.4 °C 11.2 °C 1023.2 hPa SW 22.2 km/h 22.2 km/h 59 % 0.0 mm 682.0 W/m2 CLR
11:21 19.4 °C 11.2 °C 1023.2 hPa WSW 24.1 km/h 24.1 km/h 59 % 0.0 mm 650.0 W/m2 CLR
11:26 20.0 °C 11.7 °C 1023.2 hPa WSW 22.5 km/h 22.5 km/h 59 % 0.0 mm 657.0 W/m2 CLR
11:31 20.0 °C 11.5 °C 1023.2 hPa SW 22.2 km/h 22.2 km/h 58 % 0.0 mm 677.0 W/m2 CLR
11:36 20.6 °C 11.7 °C 1022.9 hPa West 16.7 km/h 16.7 km/h 57 % 0.0 mm 722.0 W/m2 CLR
11:41 20.6 °C 11.7 °C 1022.9 hPa SW 20.4 km/h 20.4 km/h 57 % 0.0 mm 853.0 W/m2 CLR
11:46 20.6 °C 11.7 °C 1022.9 hPa SW 11.1 km/h 11.1 km/h 57 % 0.0 mm 480.0 W/m2 CLR
11:51 20.6 °C 11.7 °C 1022.9 hPa SW 18.5 km/h 18.5 km/h 57 % 0.0 mm 729.0 W/m2 CLR
11:56 21.1 °C 11.7 °C 1022.9 hPa West 19.3 km/h 19.3 km/h 55 % 0.0 mm 703.0 W/m2 CLR
12:01 21.1 °C 12.0 °C 1022.9 hPa WSW 22.2 km/h 22.2 km/h 56 % 0.0 mm 717.0 W/m2 CLR
12:06 21.1 °C 11.7 °C 1022.6 hPa WSW 24.1 km/h 24.1 km/h 55 % 0.0 mm 738.0 W/m2 CLR
12:11 21.1 °C 12.3 °C 1022.6 hPa WSW 25.9 km/h 25.9 km/h 57 % 0.0 mm 728.0 W/m2 CLR
12:16 21.1 °C 10.6 °C 1022.6 hPa WSW 18.5 km/h 18.5 km/h 51 % 0.0 mm 751.0 W/m2 CLR
12:21 21.7 °C 11.4 °C 1022.6 hPa SSW 14.8 km/h 14.8 km/h 52 % 0.0 mm 684.0 W/m2 CLR
12:26 21.7 °C 10.5 °C 1022.6 hPa SW 27.4 km/h 27.4 km/h 49 % 0.0 mm 817.0 W/m2 CLR
12:31 21.7 °C 10.2 °C 1022.2 hPa SW 20.4 km/h 20.4 km/h 48 % 0.0 mm 840.0 W/m2 CLR
12:36 22.2 °C 10.4 °C 1022.6 hPa WSW 22.2 km/h 22.2 km/h 47 % 0.0 mm 837.0 W/m2 CLR
12:41 22.8 °C 11.2 °C 1022.2 hPa SW 22.2 km/h 22.2 km/h 48 % 0.0 mm 789.0 W/m2 CLR
12:46 22.2 °C 10.4 °C 1022.2 hPa SSW 20.4 km/h 20.4 km/h 47 % 0.0 mm 775.0 W/m2 CLR
12:51 22.8 °C 11.2 °C 1022.2 hPa SSW 22.2 km/h 22.2 km/h 48 % 0.0 mm 779.0 W/m2 CLR
12:56 22.8 °C 10.6 °C 1022.2 hPa SW 18.5 km/h 18.5 km/h 46 % 0.0 mm 789.0 W/m2 CLR
13:01 23.3 °C 10.7 °C 1022.2 hPa WSW 25.9 km/h 25.9 km/h 45 % 0.0 mm 800.0 W/m2 CLR
13:06 23.3 °C 10.1 °C 1022.2 hPa WSW 29.6 km/h 29.6 km/h 43 % 0.0 mm 824.0 W/m2 CLR
13:11 23.3 °C 10.7 °C 1022.2 hPa West 24.1 km/h 24.1 km/h 45 % 0.0 mm 891.0 W/m2 CLR
13:16 23.3 °C 10.7 °C 1022.2 hPa SW 22.5 km/h 22.5 km/h 45 % 0.0 mm 867.0 W/m2 CLR
13:21 23.3 °C 10.7 °C 1022.2 hPa SW 24.1 km/h 24.1 km/h 45 % 0.0 mm 833.0 W/m2 CLR
13:26 23.3 °C 10.4 °C 1021.9 hPa West 20.4 km/h 20.4 km/h 44 % 0.0 mm 817.0 W/m2 CLR
13:31 23.3 °C 10.7 °C 1021.9 hPa WSW 20.4 km/h 20.4 km/h 45 % 0.0 mm 830.0 W/m2 CLR
13:36 23.3 °C 9.3 °C 1021.9 hPa SSW 27.8 km/h 27.8 km/h 41 % 0.0 mm 754.0 W/m2 CLR
13:41 23.9 °C 10.6 °C 1021.9 hPa WSW 27.8 km/h 27.8 km/h 43 % 0.0 mm 851.0 W/m2 CLR
13:51 23.3 °C 9.7 °C 1021.9 hPa SW 27.8 km/h 27.8 km/h 42 % 0.0 mm 849.0 W/m2 CLR
13:56 23.9 °C 9.1 °C 1021.9 hPa WNW 27.8 km/h 27.8 km/h 39 % 0.0 mm 868.0 W/m2 CLR
14:01 23.3 °C 9.3 °C 1021.6 hPa West 27.8 km/h 27.8 km/h 41 % 0.0 mm 861.0 W/m2 CLR
14:06 23.3 °C 8.9 °C 1021.6 hPa SW 27.8 km/h 27.8 km/h 40 % 0.0 mm 868.0 W/m2 CLR
14:11 23.3 °C 8.6 °C 1021.6 hPa West 24.1 km/h 24.1 km/h 39 % 0.0 mm 849.0 W/m2 CLR
14:16 23.9 °C 9.1 °C 1021.6 hPa West 29.6 km/h 29.6 km/h 39 % 0.0 mm 821.0 W/m2 CLR
14:21 23.9 °C 9.4 °C 1021.6 hPa WSW 31.5 km/h 31.5 km/h 40 % 0.0 mm 824.0 W/m2 CLR
14:26 23.9 °C 10.2 °C 1021.6 hPa SW 18.5 km/h 18.5 km/h 42 % 0.0 mm 826.0 W/m2 CLR
14:31 23.9 °C 9.4 °C 1021.2 hPa SW 27.8 km/h 27.8 km/h 40 % 0.0 mm 821.0 W/m2 CLR
14:41 23.9 °C 9.4 °C 1021.2 hPa WSW 20.4 km/h 20.4 km/h 40 % 0.0 mm 817.0 W/m2 CLR
14:46 23.9 °C 9.8 °C 1021.2 hPa WSW 27.8 km/h 27.8 km/h 41 % 0.0 mm 837.0 W/m2 CLR
14:51 23.9 °C 9.4 °C 1021.2 hPa WSW 29.6 km/h 29.6 km/h 40 % 0.0 mm 802.0 W/m2 CLR
14:56 23.9 °C 10.2 °C 1021.2 hPa West 27.4 km/h 27.4 km/h 42 % 0.0 mm 803.0 W/m2 CLR
15:01 23.9 °C 9.4 °C 1021.2 hPa WNW 25.9 km/h 25.9 km/h 40 % 0.0 mm 796.0 W/m2 CLR
15:06 24.4 °C 10.7 °C 1020.9 hPa SW 20.9 km/h 20.9 km/h 42 % 0.0 mm 793.0 W/m2 CLR
15:11 23.9 °C 10.2 °C 1020.9 hPa SW 27.8 km/h 27.8 km/h 42 % 0.0 mm 791.0 W/m2 CLR
15:16 24.4 °C 9.9 °C 1020.9 hPa West 18.5 km/h 18.5 km/h 40 % 0.0 mm 786.0 W/m2 CLR
15:21 24.4 °C 10.3 °C 1020.9 hPa WSW 25.7 km/h 25.7 km/h 41 % 0.0 mm 773.0 W/m2 CLR
15:26 24.4 °C 10.7 °C 1020.9 hPa West 24.1 km/h 24.1 km/h 42 % 0.0 mm 770.0 W/m2 CLR
15:31 24.4 °C 9.9 °C 1020.5 hPa SW 25.9 km/h 25.9 km/h 40 % 0.0 mm 758.0 W/m2 CLR
15:36 24.4 °C 9.9 °C 1020.9 hPa West 25.9 km/h 25.9 km/h 40 % 0.0 mm 752.0 W/m2 CLR
15:41 23.9 °C 10.2 °C 1020.5 hPa WSW 25.9 km/h 25.9 km/h 42 % 0.0 mm 744.0 W/m2 CLR
15:46 23.9 °C 10.2 °C 1020.5 hPa SW 29.6 km/h 29.6 km/h 42 % 0.0 mm 735.0 W/m2 CLR
15:51 23.9 °C 10.2 °C 1020.5 hPa WSW 24.1 km/h 24.1 km/h 42 % 0.0 mm 729.0 W/m2 CLR
15:56 24.4 °C 10.7 °C 1020.5 hPa SW 31.5 km/h 31.5 km/h 42 % 0.0 mm 721.0 W/m2 CLR
16:01 24.4 °C 10.7 °C 1020.5 hPa WSW 33.3 km/h 33.3 km/h 42 % 0.0 mm 708.0 W/m2 CLR
16:06 24.4 °C 11.1 °C 1020.2 hPa WSW 22.2 km/h 22.2 km/h 43 % 0.0 mm 698.0 W/m2 CLR
16:11 24.4 °C 10.3 °C 1020.2 hPa West 27.8 km/h 27.8 km/h 41 % 0.0 mm 686.0 W/m2 CLR
16:16 24.4 °C 10.3 °C 1020.2 hPa WSW 30.6 km/h 30.6 km/h 41 % 0.0 mm 682.0 W/m2 CLR
16:21 24.4 °C 10.7 °C 1020.2 hPa WSW 33.3 km/h 33.3 km/h 42 % 0.0 mm 673.0 W/m2 CLR
16:26 24.4 °C 10.3 °C 1020.2 hPa WSW 27.8 km/h 27.8 km/h 41 % 0.0 mm 663.0 W/m2 CLR
16:31 24.4 °C 10.3 °C 1020.2 hPa SW 31.5 km/h 31.5 km/h 41 % 0.0 mm 652.0 W/m2 CLR
16:36 25.0 °C 11.2 °C 1020.2 hPa West 24.1 km/h 24.1 km/h 42 % 0.0 mm 640.0 W/m2 CLR
16:41 24.4 °C 10.7 °C 1020.2 hPa West 31.5 km/h 31.5 km/h 42 % 0.0 mm 631.0 W/m2 CLR
16:46 24.4 °C 10.3 °C 1019.9 hPa West 29.6 km/h 29.6 km/h 41 % 0.0 mm 617.0 W/m2 CLR
16:51 24.4 °C 10.7 °C 1019.9 hPa WSW 31.5 km/h 31.5 km/h 42 % 0.0 mm 605.0 W/m2 CLR
16:57 24.4 °C 10.7 °C 1020.2 hPa SW 20.9 km/h 20.9 km/h 42 % 0.0 mm 594.0 W/m2 CLR
17:02 25.0 °C 11.2 °C 1020.2 hPa WSW 35.2 km/h 35.2 km/h 42 % 0.0 mm 580.0 W/m2 CLR
17:07 25.0 °C 11.2 °C 1019.9 hPa SW 18.5 km/h 18.5 km/h 42 % 0.0 mm 563.0 W/m2 CLR
17:12 24.4 °C 10.7 °C 1019.9 hPa SW 35.2 km/h 35.2 km/h 42 % 0.0 mm 545.0 W/m2 CLR
17:17 24.4 °C 10.7 °C 1019.9 hPa WSW 27.8 km/h 27.8 km/h 42 % 0.0 mm 534.0 W/m2 CLR
17:22 24.4 °C 11.1 °C 1019.9 hPa WSW 25.9 km/h 25.9 km/h 43 % 0.0 mm 527.0 W/m2 CLR
17:27 24.4 °C 10.7 °C 1019.9 hPa WSW 31.5 km/h 31.5 km/h 42 % 0.0 mm 508.0 W/m2 CLR
17:32 24.4 °C 11.1 °C 1019.9 hPa West 35.2 km/h 35.2 km/h 43 % 0.0 mm 499.0 W/m2 CLR
17:37 24.4 °C 10.7 °C 1019.9 hPa WSW 24.1 km/h 24.1 km/h 42 % 0.0 mm 482.0 W/m2 CLR
17:42 24.4 °C 10.3 °C 1019.9 hPa West 43.4 km/h 43.4 km/h 41 % 0.0 mm 468.0 W/m2 CLR
17:47 24.4 °C 10.7 °C 1019.9 hPa WSW 32.2 km/h 32.2 km/h 42 % 0.0 mm 452.0 W/m2 CLR
17:52 24.4 °C 10.3 °C 1019.9 hPa WSW 35.2 km/h 35.2 km/h 41 % 0.0 mm 436.0 W/m2 CLR
17:57 24.4 °C 10.7 °C 1019.9 hPa SW 27.8 km/h 27.8 km/h 42 % 0.0 mm 425.0 W/m2 CLR
18:02 24.4 °C 10.7 °C 1019.9 hPa West 25.9 km/h 25.9 km/h 42 % 0.0 mm 406.0 W/m2 CLR
18:07 24.4 °C 10.3 °C 1019.9 hPa WSW 24.1 km/h 24.1 km/h 41 % 0.0 mm 392.0 W/m2 CLR
18:12 23.9 °C 10.2 °C 1019.9 hPa SW 25.9 km/h 25.9 km/h 42 % 0.0 mm 376.0 W/m2 CLR
18:17 23.9 °C 10.2 °C 1019.9 hPa WSW 37.0 km/h 37.0 km/h 42 % 0.0 mm 362.0 W/m2 CLR
18:22 23.9 °C 10.2 °C 1019.9 hPa SW 27.8 km/h 27.8 km/h 42 % 0.0 mm 348.0 W/m2 CLR
18:27 23.9 °C 10.2 °C 1019.9 hPa WSW 29.6 km/h 29.6 km/h 42 % 0.0 mm 334.0 W/m2 CLR
18:32 23.9 °C 9.8 °C 1020.2 hPa WSW 20.4 km/h 20.4 km/h 41 % 0.0 mm 318.0 W/m2 CLR
18:37 23.3 °C 9.3 °C 1020.2 hPa WSW 27.8 km/h 27.8 km/h 41 % 0.0 mm 301.0 W/m2 CLR
18:42 23.3 °C 9.3 °C 1020.2 hPa WSW 25.9 km/h 25.9 km/h 41 % 0.0 mm 287.0 W/m2 CLR
18:47 23.3 °C 9.3 °C 1020.2 hPa WSW 27.8 km/h 27.8 km/h 41 % 0.0 mm 269.0 W/m2 CLR
18:52 23.3 °C 9.3 °C 1020.2 hPa SW 40.7 km/h 40.7 km/h 41 % 0.0 mm 248.0 W/m2 CLR
18:57 23.3 °C 9.7 °C 1020.2 hPa West 27.8 km/h 27.8 km/h 42 % 0.0 mm 230.0 W/m2 CLR
19:02 22.8 °C 9.2 °C 1020.2 hPa WSW 31.5 km/h 31.5 km/h 42 % 0.0 mm 214.0 W/m2 CLR
19:07 22.8 °C 9.2 °C 1020.2 hPa WSW 27.4 km/h 27.4 km/h 42 % 0.0 mm 197.0 W/m2 CLR
19:12 22.8 °C 8.8 °C 1020.2 hPa SW 33.3 km/h 33.3 km/h 41 % 0.0 mm 179.0 W/m2 CLR
19:17 22.8 °C 8.8 °C 1020.2 hPa SW 25.9 km/h 25.9 km/h 41 % 0.0 mm 156.0 W/m2 CLR
19:22 22.8 °C 8.4 °C 1020.2 hPa West 33.3 km/h 33.3 km/h 40 % 0.0 mm 135.0 W/m2 CLR
19:26 22.8 °C 8.8 °C 1020.2 hPa WSW 24.1 km/h 24.1 km/h 41 % 0.0 mm 127.0 W/m2 CLR
19:31 22.2 °C 8.3 °C 1020.2 hPa SW 31.5 km/h 31.5 km/h 41 % 0.0 mm 113.0 W/m2 CLR
19:36 22.2 °C 7.9 °C 1020.2 hPa WSW 25.7 km/h 25.7 km/h 40 % 0.0 mm 97.0 W/m2 CLR
19:41 22.2 °C 8.3 °C 1020.2 hPa WSW 24.1 km/h 24.1 km/h 41 % 0.0 mm 83.0 W/m2 CLR
19:51 21.7 °C 7.5 °C 1020.2 hPa WSW 18.5 km/h 18.5 km/h 40 % 0.0 mm 54.0 W/m2 SCT
19:56 21.7 °C 7.5 °C 1020.5 hPa WSW 29.6 km/h 29.6 km/h 40 % 0.0 mm 46.0 W/m2 SCT
20:01 21.7 °C 7.8 °C 1020.5 hPa WSW 24.1 km/h 24.1 km/h 41 % 0.0 mm 35.0 W/m2 BKN
20:06 21.7 °C 7.8 °C 1020.5 hPa WSW 31.5 km/h 31.5 km/h 41 % 0.0 mm 26.0 W/m2 BKN
20:11 21.7 °C 7.8 °C 1020.5 hPa SW 31.5 km/h 31.5 km/h 41 % 0.0 mm 19.0 W/m2 BKN
20:16 21.1 °C 7.3 °C 1020.5 hPa WSW 29.6 km/h 29.6 km/h 41 % 0.0 mm 16.0 W/m2 BKN
20:21 21.1 °C 7.7 °C 1020.5 hPa SW 27.4 km/h 27.4 km/h 42 % 0.0 mm 12.0 W/m2 BKN
20:26 21.1 °C 8.1 °C 1020.5 hPa WSW 31.5 km/h 31.5 km/h 43 % 0.0 mm 9.0 W/m2 BKN
20:31 21.1 °C 8.1 °C 1020.9 hPa WSW 31.5 km/h 31.5 km/h 43 % 0.0 mm 5.0 W/m2 OVC
20:36 20.6 °C 7.9 °C 1020.9 hPa SW 25.9 km/h 25.9 km/h 44 % 0.0 mm 0.0 W/m2 OVC
20:41 20.6 °C 7.9 °C 1020.9 hPa SW 22.2 km/h 22.2 km/h 44 % 0.0 mm 0.0 W/m2 OVC
20:46 20.6 °C 8.2 °C 1021.2 hPa WSW 19.3 km/h 19.3 km/h 45 % 0.0 mm 0.0 W/m2 CLR
20:51 20.6 °C 8.2 °C 1021.2 hPa WSW 20.4 km/h 20.4 km/h 45 % 0.0 mm 0.0 W/m2 CLR
20:56 20.0 °C 8.0 °C 1021.2 hPa West 24.1 km/h 24.1 km/h 46 % 0.0 mm 0.0 W/m2 CLR
21:01 20.0 °C 8.0 °C 1021.2 hPa SW 25.7 km/h 25.7 km/h 46 % 0.0 mm 0.0 W/m2 CLR
21:06 20.6 °C 8.6 °C 1021.2 hPa SW 25.9 km/h 25.9 km/h 46 % 0.0 mm 0.0 W/m2 CLR
21:11 20.0 °C 8.3 °C 1021.6 hPa SW 22.2 km/h 22.2 km/h 47 % 0.0 mm 0.0 W/m2 CLR
21:16 20.0 °C 8.7 °C 1021.6 hPa SSW 18.5 km/h 18.5 km/h 48 % 0.0 mm 0.0 W/m2 CLR
21:21 20.0 °C 8.3 °C 1021.6 hPa SW 18.5 km/h 18.5 km/h 47 % 0.0 mm 0.0 W/m2 CLR
21:26 19.4 °C 8.2 °C 1021.6 hPa SW 18.5 km/h 18.5 km/h 48 % 0.0 mm 0.0 W/m2 CLR
21:31 19.4 °C 8.2 °C 1021.9 hPa SW 25.9 km/h 25.9 km/h 48 % 0.0 mm 0.0 W/m2 CLR
21:36 19.4 °C 8.4 °C 1021.9 hPa SSW 18.5 km/h 18.5 km/h 49 % 0.0 mm 0.0 W/m2 CLR
21:41 19.4 °C 8.2 °C 1021.9 hPa SSW 18.5 km/h 18.5 km/h 48 % 0.0 mm 0.0 W/m2 CLR
21:46 19.4 °C 8.4 °C 1021.9 hPa WSW 27.8 km/h 27.8 km/h 49 % 0.0 mm 0.0 W/m2 CLR
21:51 19.4 °C 8.2 °C 1022.2 hPa SW 25.9 km/h 25.9 km/h 48 % 0.0 mm 0.0 W/m2 CLR
21:56 19.4 °C 8.4 °C 1022.2 hPa SW 20.4 km/h 20.4 km/h 49 % 0.0 mm 0.0 W/m2 CLR
22:01 19.4 °C 8.4 °C 1022.2 hPa SSW 27.8 km/h 27.8 km/h 49 % 0.0 mm 0.0 W/m2 CLR
22:06 18.9 °C 7.9 °C 1022.2 hPa SSW 27.8 km/h 27.8 km/h 49 % 0.0 mm 0.0 W/m2 CLR
22:11 18.9 °C 8.2 °C 1022.6 hPa SW 31.5 km/h 31.5 km/h 50 % 0.0 mm 0.0 W/m2 CLR
22:16 18.9 °C 8.2 °C 1022.2 hPa SSW 25.9 km/h 25.9 km/h 50 % 0.0 mm 0.0 W/m2 CLR
22:21 18.9 °C 8.2 °C 1022.2 hPa SSW 31.5 km/h 31.5 km/h 50 % 0.0 mm 0.0 W/m2 CLR
22:26 18.9 °C 8.5 °C 1022.6 hPa SW 31.5 km/h 31.5 km/h 51 % 0.0 mm 0.0 W/m2 CLR
22:31 18.9 °C 8.5 °C 1022.6 hPa SW 29.6 km/h 29.6 km/h 51 % 0.0 mm 0.0 W/m2 CLR
22:36 18.9 °C 8.8 °C 1022.6 hPa SSW 32.2 km/h 32.2 km/h 52 % 0.0 mm 0.0 W/m2 CLR
22:41 18.9 °C 8.8 °C 1022.6 hPa SW 24.1 km/h 24.1 km/h 52 % 0.0 mm 0.0 W/m2 CLR
22:46 18.3 °C 8.6 °C 1022.6 hPa SW 31.5 km/h 31.5 km/h 53 % 0.0 mm 0.0 W/m2 CLR
22:51 18.3 °C 8.6 °C 1022.6 hPa SSW 27.8 km/h 27.8 km/h 53 % 0.0 mm 0.0 W/m2 CLR
22:56 18.3 °C 8.6 °C 1022.6 hPa SSW 29.6 km/h 29.6 km/h 53 % 0.0 mm 0.0 W/m2 CLR
23:01 18.3 °C 8.8 °C 1022.6 hPa SW 25.9 km/h 25.9 km/h 54 % 0.0 mm 0.0 W/m2 CLR
23:06 18.3 °C 9.1 °C 1022.6 hPa SSW 27.8 km/h 27.8 km/h 55 % 0.0 mm 0.0 W/m2 CLR
23:11 18.3 °C 9.1 °C 1022.6 hPa SW 31.5 km/h 31.5 km/h 55 % 0.0 mm 0.0 W/m2 CLR
23:16 18.3 °C 9.1 °C 1022.9 hPa SW 29.6 km/h 29.6 km/h 55 % 0.0 mm 0.0 W/m2 CLR
23:21 18.3 °C 9.1 °C 1022.9 hPa SSW 27.8 km/h 27.8 km/h 55 % 0.0 mm 0.0 W/m2 CLR
23:26 18.3 °C 9.4 °C 1022.9 hPa SW 30.6 km/h 30.6 km/h 56 % 0.0 mm 0.0 W/m2 CLR
23:31 17.8 °C 8.9 °C 1022.9 hPa SSW 33.8 km/h 33.8 km/h 56 % 0.0 mm 0.0 W/m2 CLR
23:36 18.3 °C 9.7 °C 1023.2 hPa SW 29.6 km/h 29.6 km/h 57 % 0.0 mm 0.0 W/m2 CLR
23:41 17.8 °C 9.2 °C 1023.2 hPa SW 31.5 km/h 31.5 km/h 57 % 0.0 mm 0.0 W/m2 CLR
23:46 17.8 °C 9.2 °C 1022.9 hPa SW 29.6 km/h 29.6 km/h 57 % 0.0 mm 0.0 W/m2 CLR
23:51 17.8 °C 9.4 °C 1022.9 hPa SW 27.8 km/h 27.8 km/h 58 % 0.0 mm 0.0 W/m2 CLR
23:56 17.8 °C 9.4 °C 1023.2 hPa SSW 37.0 km/h 37.0 km/h 58 % 0.0 mm 0.0 W/m2 CLR
Lo Temps de Massalio
Compliments of Weather Underground - 1.25 mb